createdAt,value
2019-01-06T00:02:39.202Z,98279.95
2019-01-06T00:05:32.627Z,98273.66
2019-01-06T00:08:23.516Z,98283.34
2019-01-06T00:11:14.353Z,98282.59
2019-01-06T00:14:08.921Z,98280.77
2019-01-06T00:17:12.504Z,98270.89
2019-01-06T00:19:57.441Z,98271.72
2019-01-06T00:22:46.700Z,98270.64
2019-01-06T00:25:35.843Z,98274.77
2019-01-06T00:28:28.237Z,98272.79
2019-01-06T00:31:13.846Z,98270.23
2019-01-06T00:34:17.580Z,98278.75
2019-01-06T00:37:06.380Z,98281.34
2019-01-06T00:39:56.702Z,98275.25
2019-01-06T00:42:46.730Z,98272.30
2019-01-06T00:45:37.018Z,98268.08
2019-01-06T00:48:33.323Z,98278.93
2019-01-06T00:51:23.827Z,98269.84
2019-01-06T00:54:26.207Z,98265.44
2019-01-06T00:57:15.207Z,98270.82
2019-01-06T01:00:04.027Z,98261.84
2019-01-06T01:02:47.750Z,98267.38
2019-01-06T01:05:41.033Z,98267.12
2019-01-06T01:08:29.999Z,98266.26
2019-01-06T01:11:18.957Z,98265.13
2019-01-06T01:14:07.674Z,98267.23
2019-01-06T01:16:58.138Z,98269.42
2019-01-06T01:19:44.700Z,98277.00
2019-01-06T01:22:35.056Z,98281.76
2019-01-06T01:25:26.120Z,98279.52
2019-01-06T01:28:13.682Z,98275.63
2019-01-06T01:31:18.636Z,98276.56
2019-01-06T01:34:14.467Z,98277.70
2019-01-06T01:37:03.032Z,98273.94
2019-01-06T01:39:55.615Z,98272.16
2019-01-06T01:42:48.509Z,98268.31
2019-01-06T01:45:37.307Z,98264.60
2019-01-06T01:48:26.246Z,98267.07
2019-01-06T01:51:14.753Z,98264.98
2019-01-06T01:54:03.464Z,98270.28
2019-01-06T01:57:08.527Z,98268.07
2019-01-06T02:00:05.147Z,98278.70
2019-01-06T02:03:04.437Z,98265.93
2019-01-06T02:05:52.860Z,98273.05
2019-01-06T02:08:45.246Z,98276.92
2019-01-06T02:11:38.088Z,98277.91
2019-01-06T02:14:31.219Z,98270.01
2019-01-06T02:17:21.294Z,98278.01
2019-01-06T02:20:26.589Z,98272.38
2019-01-06T02:23:33.150Z,98280.16
2019-01-06T02:26:21.889Z,98282.14
2019-01-06T02:29:28.215Z,98286.06
2019-01-06T02:32:33.961Z,98288.19
2019-01-06T02:35:22.649Z,98286.56
2019-01-06T02:38:18.886Z,98272.03
2019-01-06T02:41:07.435Z,98272.22
2019-01-06T02:43:56.278Z,98253.81
2019-01-06T02:46:44.676Z,98258.31
2019-01-06T02:49:35.164Z,98260.72
2019-01-06T02:52:28.491Z,98250.97
2019-01-06T02:55:21.311Z,98253.80
2019-01-06T02:58:09.971Z,98251.44
2019-01-06T03:00:55.241Z,98253.84
2019-01-06T03:03:51.267Z,98248.64
2019-01-06T03:06:50.652Z,98251.25
2019-01-06T03:09:52.858Z,98249.31
2019-01-06T03:12:41.819Z,98251.05
2019-01-06T03:15:31.645Z,98243.77
2019-01-06T03:18:16.661Z,98248.97
2019-01-06T03:21:11.518Z,98245.59
2019-01-06T03:24:11.697Z,98241.81
2019-01-06T03:27:00.383Z,98241.36
2019-01-06T03:29:50.540Z,98235.87
2019-01-06T03:32:46.721Z,98235.89
2019-01-06T03:35:41.309Z,98239.59
2019-01-06T03:38:33.125Z,98226.52
2019-01-06T03:41:19.409Z,98228.55
2019-01-06T03:44:08.226Z,98223.78
2019-01-06T03:46:56.781Z,98228.23
2019-01-06T03:49:53.221Z,98226.81
2019-01-06T03:52:41.885Z,98226.81
2019-01-06T03:55:31.635Z,98225.05
2019-01-06T03:58:20.305Z,98221.64
2019-01-06T04:01:22.235Z,98212.63
2019-01-06T04:04:10.808Z,98210.28
2019-01-06T04:07:12.877Z,98206.31
2019-01-06T04:10:01.372Z,98205.31
2019-01-06T04:13:00.168Z,98201.89
2019-01-06T04:15:51.980Z,98201.55
2019-01-06T04:18:29.161Z,98193.48
2019-01-06T04:21:24.846Z,98192.84
2019-01-06T04:24:13.580Z,98196.36
2019-01-06T04:27:03.907Z,98191.69
2019-01-06T04:30:09.104Z,98197.77
2019-01-06T04:33:08.371Z,98194.87
2019-01-06T04:36:07.508Z,98192.82
2019-01-06T04:38:56.045Z,98195.92
2019-01-06T04:41:52.114Z,98194.37
2019-01-06T04:44:54.060Z,98195.31
2019-01-06T04:47:53.250Z,98196.52
2019-01-06T04:50:42.262Z,98194.67
2019-01-06T04:53:30.403Z,98195.55
2019-01-06T04:56:19.151Z,98193.88
2019-01-06T04:59:21.328Z,98208.63
2019-01-06T05:02:11.687Z,98212.98
2019-01-06T05:05:07.789Z,98217.23
2019-01-06T05:08:03.771Z,98218.97
2019-01-06T05:10:56.683Z,98214.91
2019-01-06T05:13:45.394Z,98216.06
2019-01-06T05:16:34.069Z,98203.29
2019-01-06T05:19:23.170Z,98205.55
2019-01-06T05:22:11.826Z,98207.45
2019-01-06T05:25:00.880Z,98197.31
2019-01-06T05:27:46.239Z,98199.89
2019-01-06T05:30:47.927Z,98198.56
2019-01-06T05:33:52.145Z,98200.19
2019-01-06T05:36:44.625Z,98198.69
2019-01-06T05:39:40.402Z,98203.94
2019-01-06T05:42:28.839Z,98211.45
2019-01-06T05:45:18.898Z,98212.63
2019-01-06T05:48:03.418Z,98217.37
2019-01-06T05:50:52.830Z,98225.27
2019-01-06T05:53:49.460Z,98224.44
2019-01-06T05:56:48.671Z,98220.70
2019-01-06T05:59:32.163Z,98234.45
2019-01-06T06:02:28.354Z,98227.53
2019-01-06T06:05:40.703Z,98225.34
2019-01-06T06:08:48.691Z,98223.83
2019-01-06T06:11:37.623Z,98222.73
2019-01-06T06:14:37.115Z,98237.58
2019-01-06T06:17:26.080Z,98229.58
2019-01-06T06:20:14.874Z,98237.80
2019-01-06T06:23:10.984Z,98234.75
2019-01-06T06:26:01.024Z,98242.03
2019-01-06T06:28:45.099Z,98244.95
2019-01-06T06:31:33.887Z,98245.80
2019-01-06T06:34:22.983Z,98245.30
2019-01-06T06:37:22.175Z,98244.47
2019-01-06T06:40:21.523Z,98244.50
2019-01-06T06:43:21.621Z,98240.25
2019-01-06T06:46:17.479Z,98244.15
2019-01-06T06:49:19.461Z,98248.88
2019-01-06T06:52:08.494Z,98244.41
2019-01-06T06:54:52.605Z,98239.42
2019-01-06T06:58:30.340Z,98240.41
2019-01-06T07:02:24.396Z,98241.41
2019-01-06T07:05:19.913Z,98247.49
2019-01-06T07:08:18.176Z,98258.48
2019-01-06T07:11:11.368Z,98265.05
2019-01-06T07:13:53.848Z,98261.27
2019-01-06T07:17:41.031Z,98264.10
2019-01-06T07:20:43.274Z,98261.70
2019-01-06T07:23:47.104Z,98268.95
2019-01-06T07:26:36.174Z,98276.92
2019-01-06T07:29:26.939Z,98281.27
2019-01-06T07:32:17.411Z,98280.48
2019-01-06T07:35:07.292Z,98286.11
2019-01-06T07:37:56.604Z,98284.13
2019-01-06T07:40:49.658Z,98288.35
2019-01-06T07:43:38.697Z,98290.59
2019-01-06T07:46:27.178Z,98298.38
2019-01-06T07:49:32.857Z,98293.73
2019-01-06T07:52:41.131Z,98295.52
2019-01-06T07:55:28.907Z,98296.25
2019-01-06T07:58:21.748Z,98294.84
2019-01-06T08:01:12.076Z,98297.27
2019-01-06T08:04:01.862Z,98303.52
2019-01-06T08:07:05.135Z,98303.08
2019-01-06T08:09:53.585Z,98308.89
2019-01-06T08:12:52.734Z,98313.17
2019-01-06T08:15:41.899Z,98313.73
2019-01-06T08:18:33.607Z,98316.27
2019-01-06T08:21:26.755Z,98310.55
2019-01-06T08:24:15.575Z,98312.30
2019-01-06T08:26:56.424Z,98313.36
2019-01-06T08:29:53.167Z,98319.53
2019-01-06T08:32:58.383Z,98311.50
2019-01-06T08:35:51.717Z,98324.86
2019-01-06T08:38:40.793Z,98320.88
2019-01-06T08:41:36.977Z,98327.39
2019-01-06T08:44:19.114Z,98324.87
2019-01-06T08:47:17.781Z,98328.66
2019-01-06T08:50:06.815Z,98317.42
2019-01-06T08:52:56.275Z,98325.86
2019-01-06T08:55:50.393Z,98327.16
2019-01-06T08:58:49.769Z,98332.16
2019-01-06T09:01:39.543Z,98333.66
2019-01-06T09:04:32.675Z,98336.34
2019-01-06T09:07:21.402Z,98338.30
2019-01-06T09:10:11.907Z,98338.34
2019-01-06T09:13:07.910Z,98338.84
2019-01-06T09:16:06.800Z,98340.47
2019-01-06T09:19:02.461Z,98342.44
2019-01-06T09:21:52.488Z,98354.89
2019-01-06T09:24:57.715Z,98350.77
2019-01-06T09:27:56.611Z,98358.52
2019-01-06T09:30:45.679Z,98352.38
2019-01-06T09:33:33.682Z,98358.30
2019-01-06T09:36:36.064Z,98355.88
2019-01-06T09:39:23.183Z,98358.94
2019-01-06T09:42:12.057Z,98354.30
2019-01-06T09:45:02.478Z,98356.22
2019-01-06T09:48:10.751Z,98349.67
2019-01-06T09:50:59.739Z,98356.07
2019-01-06T09:53:58.854Z,98355.44
2019-01-06T09:56:55.952Z,98359.80
2019-01-06T09:59:43.250Z,98364.91
2019-01-06T10:02:42.467Z,98360.17
2019-01-06T10:05:35.543Z,98356.30
2019-01-06T10:08:28.922Z,98356.25
2019-01-06T10:11:28.528Z,98352.40
2019-01-06T10:14:16.645Z,98357.63
2019-01-06T10:17:06.157Z,98359.29
2019-01-06T10:19:56.064Z,98360.95
2019-01-06T10:22:52.271Z,98356.50
2019-01-06T10:25:42.239Z,98359.92
2019-01-06T10:28:38.536Z,98353.12
2019-01-06T10:31:28.543Z,98357.70
2019-01-06T10:34:17.251Z,98362.89
2019-01-06T10:37:06.112Z,98362.86
2019-01-06T10:39:54.584Z,98357.92
2019-01-06T10:42:47.985Z,98364.21
2019-01-06T10:45:52.976Z,98370.59
2019-01-06T10:48:41.447Z,98369.48
2019-01-06T10:51:31.488Z,98365.62
2019-01-06T10:54:31.858Z,98365.66
2019-01-06T10:57:21.965Z,98367.44
2019-01-06T11:00:15.122Z,98367.04
2019-01-06T11:03:14.071Z,98365.27
2019-01-06T11:06:02.549Z,98369.30
2019-01-06T11:08:52.628Z,98368.82
2019-01-06T11:11:55.120Z,98372.95
2019-01-06T11:14:40.057Z,98369.03
2019-01-06T11:17:41.102Z,98374.69
2019-01-06T11:20:41.359Z,98373.78
2019-01-06T11:23:43.186Z,98372.77
2019-01-06T11:26:36.261Z,98371.52
2019-01-06T11:29:24.743Z,98370.50
2019-01-06T11:32:29.982Z,98370.22
2019-01-06T11:35:19.772Z,98363.67
2019-01-06T11:38:25.256Z,98367.63
2019-01-06T11:41:17.786Z,98361.20
2019-01-06T11:44:04.001Z,98368.34
2019-01-06T11:46:52.804Z,98364.16
2019-01-06T11:50:01.065Z,98359.64
2019-01-06T11:53:06.186Z,98364.56
2019-01-06T11:56:07.134Z,98365.55
2019-01-06T11:59:12.866Z,98365.69
2019-01-06T12:02:02.923Z,98363.44
2019-01-06T12:04:51.477Z,98363.56
2019-01-06T12:07:50.477Z,98364.34
2019-01-06T12:10:39.215Z,98360.28
2019-01-06T12:13:28.307Z,98368.59
2019-01-06T12:16:23.976Z,98365.91
2019-01-06T12:19:13.803Z,98366.11
2019-01-06T12:22:03.823Z,98366.12
2019-01-06T12:24:56.646Z,98363.37
2019-01-06T12:27:45.481Z,98370.81
2019-01-06T12:30:30.449Z,98368.68
2019-01-06T12:33:19.377Z,98368.44
2019-01-06T12:36:24.616Z,98371.49
2019-01-06T12:39:13.442Z,98371.73
2019-01-06T12:42:03.993Z,98375.26
2019-01-06T12:44:56.739Z,98378.12
2019-01-06T12:47:40.557Z,98371.39
2019-01-06T12:50:45.770Z,98365.46
2019-01-06T12:53:40.081Z,98366.83
2019-01-06T12:56:25.974Z,98377.48
2019-01-06T12:59:34.029Z,98374.16
2019-01-06T13:02:42.385Z,98373.82
2019-01-06T13:05:32.475Z,98378.56
2019-01-06T13:08:23.469Z,98374.62
2019-01-06T13:11:27.828Z,98375.05
2019-01-06T13:14:23.946Z,98379.55
2019-01-06T13:17:23.586Z,98376.69
2019-01-06T13:20:19.402Z,98378.19
2019-01-06T13:23:21.731Z,98382.82
2019-01-06T13:26:12.046Z,98380.27
2019-01-06T13:29:00.792Z,98376.20
2019-01-06T13:31:41.119Z,98388.00
2019-01-06T13:34:35.591Z,98395.08
2019-01-06T13:37:27.786Z,98395.09
2019-01-06T13:40:16.027Z,98395.00
2019-01-06T13:43:04.019Z,98391.27
2019-01-06T13:46:12.394Z,98399.34
2019-01-06T13:49:01.231Z,98396.78
2019-01-06T13:51:49.515Z,98395.01
2019-01-06T13:54:52.153Z,98396.53
2019-01-06T13:57:48.199Z,98394.81
2019-01-06T14:00:47.337Z,98404.41
2019-01-06T14:03:35.656Z,98405.36
2019-01-06T14:06:24.675Z,98407.80
2019-01-06T14:09:12.843Z,98407.06
2019-01-06T14:12:17.790Z,98411.26
2019-01-06T14:15:08.171Z,98420.74
2019-01-06T14:18:01.615Z,98417.34
2019-01-06T14:21:01.555Z,98424.41
2019-01-06T14:23:57.885Z,98425.42
2019-01-06T14:26:46.721Z,98423.53
2019-01-06T14:29:51.622Z,98430.25
2019-01-06T14:32:58.041Z,98428.95
2019-01-06T14:35:48.120Z,98427.54
2019-01-06T14:38:38.816Z,98431.41
2019-01-06T14:41:43.725Z,98427.02
2019-01-06T14:44:33.536Z,98423.79
2019-01-06T14:47:35.792Z,98425.98
2019-01-06T14:50:26.128Z,98431.62
2019-01-06T14:53:10.339Z,98436.69
2019-01-06T14:55:58.956Z,98438.28
2019-01-06T14:58:48.146Z,98437.00
2019-01-06T15:01:38.188Z,98439.26
2019-01-06T15:04:43.492Z,98439.79
2019-01-06T15:07:45.678Z,98442.23
2019-01-06T15:10:38.608Z,98447.05
2019-01-06T15:13:37.940Z,98449.55
2019-01-06T15:16:34.735Z,98445.33
2019-01-06T15:19:23.528Z,98450.17
2019-01-06T15:22:12.056Z,98451.50
2019-01-06T15:25:02.797Z,98453.46
2019-01-06T15:27:51.245Z,98455.13
2019-01-06T15:30:40.109Z,98446.27
2019-01-06T15:33:28.617Z,98446.44
2019-01-06T15:36:34.907Z,98450.95
2019-01-06T15:39:32.446Z,98455.79
2019-01-06T15:42:25.479Z,98456.59
2019-01-06T15:45:34.447Z,98458.39
2019-01-06T15:48:23.096Z,98467.17
2019-01-06T15:51:11.952Z,98459.92
2019-01-06T15:54:01.013Z,98454.40
2019-01-06T15:57:06.249Z,98462.81
2019-01-06T16:00:06.402Z,98460.71
2019-01-06T16:03:06.376Z,98454.88
2019-01-06T16:05:53.045Z,98465.07
2019-01-06T16:08:38.191Z,98461.71
2019-01-06T16:11:30.538Z,98465.89
2019-01-06T16:14:19.784Z,98464.77
2019-01-06T16:17:08.497Z,98466.56
2019-01-06T16:20:01.258Z,98466.41
2019-01-06T16:22:51.326Z,98470.13
2019-01-06T16:25:44.144Z,98472.23
2019-01-06T16:28:32.859Z,98470.59
2019-01-06T16:31:20.668Z,98473.53
2019-01-06T16:34:09.406Z,98478.03
2019-01-06T16:36:52.702Z,98480.17
2019-01-06T16:39:42.200Z,98476.45
2019-01-06T16:42:50.175Z,98475.34
2019-01-06T16:45:39.208Z,98481.14
2019-01-06T16:48:38.037Z,98490.36
2019-01-06T16:51:26.509Z,98489.38
2019-01-06T16:54:16.275Z,98488.24
2019-01-06T16:57:06.622Z,98485.98
2019-01-06T17:00:09.182Z,98496.30
2019-01-06T17:03:05.352Z,98492.42
2019-01-06T17:05:54.166Z,98492.07
2019-01-06T17:08:42.868Z,98493.20
2019-01-06T17:11:31.945Z,98501.14
2019-01-06T17:14:24.755Z,98493.41
2019-01-06T17:17:14.780Z,98497.11
2019-01-06T17:19:55.483Z,98495.66
2019-01-06T17:22:57.405Z,98489.04
2019-01-06T17:25:55.788Z,98494.05
2019-01-06T17:28:44.600Z,98493.41
2019-01-06T17:31:51.284Z,98501.64
2019-01-06T17:34:39.847Z,98498.41
2019-01-06T17:37:38.116Z,98506.31
2019-01-06T17:40:40.182Z,98501.81
2019-01-06T17:43:37.646Z,98494.72
2019-01-06T17:46:30.568Z,98501.82
2019-01-06T17:49:19.366Z,98502.45
2019-01-06T17:52:12.576Z,98498.41
2019-01-06T17:55:17.903Z,98497.27
2019-01-06T17:58:09.446Z,98493.42
2019-01-06T18:01:01.015Z,98500.83
2019-01-06T18:04:01.697Z,98507.00
2019-01-06T18:06:57.602Z,98507.13
2019-01-06T18:09:56.362Z,98503.77
2019-01-06T18:12:37.372Z,98505.38
2019-01-06T18:15:33.448Z,98510.38
2019-01-06T18:18:38.437Z,98507.30
2019-01-06T18:21:46.679Z,98512.97
2019-01-06T18:24:35.675Z,98506.02
2019-01-06T18:27:24.070Z,98511.17
2019-01-06T18:30:13.843Z,98505.53
2019-01-06T18:33:07.993Z,98509.73
2019-01-06T18:36:04.151Z,98507.47
2019-01-06T18:38:54.524Z,98511.52
2019-01-06T18:41:43.127Z,98512.14
2019-01-06T18:44:31.884Z,98515.34
2019-01-06T18:47:20.616Z,98514.38
2019-01-06T18:50:10.679Z,98516.16
2019-01-06T18:53:11.162Z,98514.02
2019-01-06T18:56:04.260Z,98518.19
2019-01-06T18:58:53.228Z,98522.25
2019-01-06T19:01:41.608Z,98521.47
2019-01-06T19:04:34.698Z,98527.92
2019-01-06T19:07:23.566Z,98528.20
2019-01-06T19:10:11.998Z,98526.42
2019-01-06T19:13:14.120Z,98529.05
2019-01-06T19:16:05.969Z,98525.48
2019-01-06T19:19:05.053Z,98530.20
2019-01-06T19:21:53.492Z,98523.89
2019-01-06T19:24:43.841Z,98527.12
2019-01-06T19:27:32.809Z,98524.33
2019-01-06T19:30:21.098Z,98529.98
2019-01-06T19:33:11.094Z,98530.52
2019-01-06T19:36:01.141Z,98534.69
2019-01-06T19:38:50.609Z,98528.57
2019-01-06T19:41:44.471Z,98530.69
2019-01-06T19:44:43.982Z,98527.44
2019-01-06T19:47:34.810Z,98531.22
2019-01-06T19:50:23.597Z,98530.42
2019-01-06T19:53:18.661Z,98538.82
2019-01-06T19:56:07.429Z,98536.38
2019-01-06T19:58:56.171Z,98541.26
2019-01-06T20:01:42.867Z,98539.48
2019-01-06T20:04:42.203Z,98541.42
2019-01-06T20:07:31.114Z,98546.44
2019-01-06T20:10:19.631Z,98543.06
2019-01-06T20:13:08.702Z,98541.78
2019-01-06T20:15:57.626Z,98542.74
2019-01-06T20:18:38.268Z,98551.64
2019-01-06T20:21:22.003Z,98549.04
2019-01-06T20:24:16.817Z,98553.09
2019-01-06T20:27:14.836Z,98555.34
2019-01-06T20:30:04.472Z,98546.93
2019-01-06T20:33:00.165Z,98545.00
2019-01-06T20:36:08.351Z,98546.77
2019-01-06T20:39:01.297Z,98551.14
2019-01-06T20:41:58.563Z,98547.75
2019-01-06T20:44:42.282Z,98545.31
2019-01-06T20:47:44.083Z,98543.70
2019-01-06T20:50:43.827Z,98546.59
2019-01-06T20:53:34.186Z,98553.20
2019-01-06T20:56:22.689Z,98554.81
2019-01-06T20:59:15.922Z,98556.11
2019-01-06T21:02:14.562Z,98553.52
2019-01-06T21:05:03.420Z,98552.69
2019-01-06T21:07:53.441Z,98552.52
2019-01-06T21:10:34.711Z,98551.90
2019-01-06T21:13:40.090Z,98550.09
2019-01-06T21:16:28.462Z,98547.97
2019-01-06T21:19:17.275Z,98552.53
2019-01-06T21:22:21.481Z,98539.56
2019-01-06T21:25:11.518Z,98539.60
2019-01-06T21:28:00.183Z,98541.01
2019-01-06T21:30:59.427Z,98541.34
2019-01-06T21:33:48.181Z,98544.30
2019-01-06T21:36:44.239Z,98546.73
2019-01-06T21:39:41.434Z,98544.28
2019-01-06T21:42:50.093Z,98551.70
2019-01-06T21:45:40.196Z,98558.82
2019-01-06T21:48:48.799Z,98563.64
2019-01-06T21:51:41.965Z,98556.84
2019-01-06T21:54:29.192Z,98563.99
2019-01-06T21:57:19.713Z,98566.89
2019-01-06T22:00:21.892Z,98567.22
2019-01-06T22:03:18.295Z,98564.47
2019-01-06T22:06:05.049Z,98562.67
2019-01-06T22:09:04.175Z,98557.00
2019-01-06T22:11:56.919Z,98558.78
2019-01-06T22:14:50.196Z,98557.16
2019-01-06T22:17:39.768Z,98560.72
2019-01-06T22:20:44.307Z,98559.15
2019-01-06T22:23:31.799Z,98563.83
2019-01-06T22:26:28.140Z,98562.36
2019-01-06T22:29:16.684Z,98562.82
2019-01-06T22:32:05.229Z,98560.36
2019-01-06T22:34:55.244Z,98556.20
2019-01-06T22:37:54.311Z,98561.56
2019-01-06T22:40:46.840Z,98550.23
2019-01-06T22:43:43.528Z,98554.00
2019-01-06T22:46:45.169Z,98558.03
2019-01-06T22:49:38.251Z,98556.27
2019-01-06T22:52:25.726Z,98555.11
2019-01-06T22:55:21.698Z,98555.44
2019-01-06T22:58:29.734Z,98555.93
2019-01-06T23:01:38.021Z,98552.03
2019-01-06T23:04:37.042Z,98555.59
2019-01-06T23:07:24.121Z,98557.06
2019-01-06T23:10:10.568Z,98557.70
2019-01-06T23:13:00.875Z,98552.17
2019-01-06T23:15:52.962Z,98557.03
2019-01-06T23:18:41.742Z,98559.31
2019-01-06T23:21:29.963Z,98556.25
2019-01-06T23:24:23.226Z,98558.33
2019-01-06T23:27:16.158Z,98552.70
2019-01-06T23:32:52.572Z,98555.79
2019-01-06T23:35:50.354Z,98556.44
2019-01-06T23:38:45.862Z,98560.14
2019-01-06T23:41:35.637Z,98554.50
2019-01-06T23:44:25.005Z,98554.53
2019-01-06T23:47:14.896Z,98556.62
2019-01-06T23:50:17.579Z,98550.50
2019-01-06T23:53:08.222Z,98558.56
2019-01-06T23:56:04.812Z,98553.07
2019-01-06T23:59:01.058Z,98554.83
